Time;durP1;ratioP1;P1;durP2;ratioP2;P2;SDS_P1;SDS_P2;PMS_P1;PMS_P2;Temp;Humidity;BMP_temperature;BMP_pressure;BME280_temperature;BME280_humidity;BME280_pressure;Samples;Min_cycle;Max_cycle;Signal;HPM_P1;HPM_P2
2023/01/23 00:01:38;;;;;;;3.43;1.70;;;22.20;37.10;;;;;;5045547;27;88040;-55
2023/01/23 00:04:06;;;;;;;2.27;1.53;;;22.20;37.10;;;;;;5044149;27;87407;-55
2023/01/23 00:06:34;;;;;;;3.57;1.43;;;22.10;37.00;;;;;;5043567;27;88120;-55
2023/01/23 00:09:02;;;;;;;2.47;1.60;;;22.10;37.10;;;;;;5049794;27;87817;-55
2023/01/23 00:11:30;;;;;;;1.80;1.33;;;22.10;37.10;;;;;;5042434;27;86915;-57
2023/01/23 00:13:59;;;;;;;1.50;1.40;;;22.10;37.10;;;;;;5043082;27;87114;-55
2023/01/23 00:16:28;;;;;;;1.40;1.27;;;22.10;37.10;;;;;;5041714;27;87733;-55
2023/01/23 00:18:57;;;;;;;1.63;1.00;;;22.10;37.10;;;;;;5035730;27;88771;-55
2023/01/23 00:21:27;;;;;;;1.50;1.40;;;22.00;37.10;;;;;;5041282;27;88006;-55
2023/01/23 00:23:57;;;;;;;1.87;1.27;;;22.00;37.10;;;;;;5037622;27;87379;-55
2023/01/23 00:26:25;;;;;;;3.20;1.40;;;22.00;37.10;;;;;;5042113;27;89186;-55
2023/01/23 00:28:54;;;;;;;1.13;1.13;;;22.00;37.10;;;;;;5045810;27;89993;-54
2023/01/23 00:31:23;;;;;;;1.63;1.50;;;22.00;37.10;;;;;;5040327;27;87077;-55
2023/01/23 00:33:53;;;;;;;2.13;1.60;;;22.00;37.10;;;;;;5047734;27;87419;-55
2023/01/23 00:36:23;;;;;;;2.20;1.50;;;21.90;37.10;;;;;;5041088;27;87333;-55
2023/01/23 00:38:51;;;;;;;2.27;1.43;;;21.90;37.10;;;;;;5041502;27;87813;-55
2023/01/23 00:41:19;;;;;;;1.87;1.20;;;21.90;37.10;;;;;;5042070;27;87001;-56
2023/01/23 00:43:47;;;;;;;1.33;1.10;;;21.90;37.10;;;;;;5041962;28;86276;-56
2023/01/23 00:46:15;;;;;;;3.03;1.70;;;21.90;37.10;;;;;;5041425;27;89291;-55
2023/01/23 00:48:43;;;;;;;0.80;0.80;;;21.90;37.20;;;;;;5040893;27;87696;-56
2023/01/23 00:51:11;;;;;;;1.00;1.00;;;21.80;37.10;;;;;;5041418;27;88030;-56
2023/01/23 00:53:41;;;;;;;2.00;1.20;;;21.80;37.10;;;;;;5040034;28;87002;-56
2023/01/23 00:56:09;;;;;;;1.70;1.17;;;21.80;37.10;;;;;;5041436;28;88234;-57
2023/01/23 00:58:37;;;;;;;0.80;0.80;;;21.80;37.10;;;;;;5041955;27;88842;-55
2023/01/23 01:01:05;;;;;;;1.47;0.80;;;21.80;37.10;;;;;;5061855;27;87024;-55
2023/01/23 01:03:33;;;;;;;1.23;1.00;;;21.80;37.10;;;;;;5059294;27;87044;-55
2023/01/23 01:06:01;;;;;;;2.67;1.10;;;21.80;37.10;;;;;;5041611;28;87939;-55
2023/01/23 01:08:29;;;;;;;0.63;0.63;;;21.80;37.10;;;;;;5040960;28;87684;-55
2023/01/23 01:10:58;;;;;;;2.13;0.90;;;21.80;37.10;;;;;;5041651;28;87208;-55
2023/01/23 01:13:26;;;;;;;0.90;0.90;;;21.70;37.10;;;;;;5041260;27;87143;-55
2023/01/23 01:15:54;;;;;;;0.73;0.70;;;21.70;37.10;;;;;;5038741;28;89039;-55
2023/01/23 01:18:23;;;;;;;3.50;1.33;;;21.70;37.10;;;;;;5052642;27;89846;-55
2023/01/23 01:20:51;;;;;;;1.13;0.87;;;21.70;37.10;;;;;;5042605;27;87063;-55
2023/01/23 01:23:19;;;;;;;1.30;1.20;;;21.70;37.10;;;;;;5057753;27;87108;-55
2023/01/23 01:25:47;;;;;;;1.73;0.87;;;21.70;37.10;;;;;;5040558;27;89167;-54
2023/01/23 01:28:16;;;;;;;3.33;1.27;;;21.70;37.20;;;;;;5055709;27;87817;-57
2023/01/23 01:30:44;;;;;;;1.00;0.87;;;21.70;37.20;;;;;;5041641;27;87125;-57
2023/01/23 01:33:12;;;;;;;1.50;1.03;;;21.60;37.10;;;;;;5053478;27;86307;-57
2023/01/23 01:35:41;;;;;;;0.40;0.40;;;21.60;37.10;;;;;;5050218;27;88125;-57
2023/01/23 01:38:09;;;;;;;0.60;0.60;;;21.60;37.10;;;;;;5050718;27;87965;-54
2023/01/23 01:40:37;;;;;;;1.07;0.83;;;21.60;37.10;;;;;;5039479;27;87951;-58
2023/01/23 01:43:07;;;;;;;1.37;0.60;;;21.60;37.10;;;;;;5040386;28;87065;-57
2023/01/23 01:46:04;;;;;;;1.30;1.07;;;21.60;37.30;;;;;;5040464;28;87838;-57
2023/01/23 01:48:33;;;;;;;0.63;0.50;;;21.50;37.10;;;;;;5041944;27;87827;-57
2023/01/23 01:51:01;;;;;;;1.07;0.97;;;21.50;37.10;;;;;;5039724;27;87492;-57
2023/01/23 01:53:29;;;;;;;0.77;0.77;;;21.50;37.20;;;;;;5040992;27;87109;-57
2023/01/23 01:55:57;;;;;;;3.93;0.93;;;21.50;37.20;;;;;;5040757;28;88121;-57
2023/01/23 01:58:25;;;;;;;0.90;0.90;;;21.50;37.20;;;;;;5058203;27;87980;-57
2023/01/23 02:00:53;;;;;;;1.37;0.67;;;21.40;37.10;;;;;;5039739;27;87154;-56
2023/01/23 02:03:23;;;;;;;1.80;0.60;;;21.40;37.10;;;;;;5059385;27;88343;-56
2023/01/23 02:05:51;;;;;;;0.90;0.90;;;21.40;37.10;;;;;;5045291;27;89218;-56
2023/01/23 02:08:20;;;;;;;0.90;0.80;;;21.40;37.10;;;;;;5054684;27;88702;-56
2023/01/23 02:10:48;;;;;;;0.60;0.60;;;21.40;37.10;;;;;;5043351;27;87121;-56
2023/01/23 02:13:21;;;;;;;1.13;0.87;;;21.40;37.10;;;;;;5043721;27;87094;-57
2023/01/23 02:15:49;;;;;;;0.57;0.57;;;21.40;37.20;;;;;;5045353;27;88101;-56
2023/01/23 02:18:17;;;;;;;1.50;0.83;;;21.40;37.10;;;;;;5043653;27;87629;-56
2023/01/23 02:20:46;;;;;;;0.77;0.77;;;21.40;37.20;;;;;;5048502;27;87041;-56
2023/01/23 02:23:20;;;;;;;1.67;0.73;;;21.40;37.20;;;;;;5037294;27;86284;-56
2023/01/23 02:25:55;;;;;;;0.87;0.73;;;21.40;37.20;;;;;;5039111;28;88296;-56
2023/01/23 02:28:23;;;;;;;5.30;1.23;;;21.30;37.20;;;;;;5039651;27;88794;-57
2023/01/23 02:30:51;;;;;;;1.13;0.90;;;21.30;37.10;;;;;;5039774;27;87937;-56
2023/01/23 02:33:45;;;;;;;0.57;0.57;;;21.30;37.10;;;;;;5044243;27;87045;-56
2023/01/23 02:36:13;;;;;;;0.60;0.60;;;21.30;37.20;;;;;;5034664;27;89166;-56
2023/01/23 02:38:48;;;;;;;1.53;1.00;;;21.30;37.10;;;;;;5046579;27;87062;-56
2023/01/23 02:41:18;;;;;;;1.13;0.93;;;21.30;37.20;;;;;;5039669;27;88346;-56
2023/01/23 02:43:46;;;;;;;1.03;0.73;;;21.30;37.90;;;;;;5040824;28;86948;-56
2023/01/23 02:46:17;;;;;;;1.40;1.10;;;21.30;37.20;;;;;;5040070;28;87995;-56
2023/01/23 02:48:46;;;;;;;1.57;1.00;;;21.20;37.10;;;;;;5037343;27;87762;-57
2023/01/23 02:51:15;;;;;;;0.60;0.60;;;21.20;37.20;;;;;;5037960;27;87117;-56
2023/01/23 02:53:44;;;;;;;0.60;0.60;;;21.20;37.20;;;;;;5035806;27;87056;-56
2023/01/23 02:56:12;;;;;;;0.53;0.40;;;21.20;37.20;;;;;;5039269;28;89049;-57
2023/01/23 03:01:27;;;;;;;5.53;0.93;;;21.10;37.80;;;;;;5039817;27;87005;-56
2023/01/23 03:04:02;;;;;;;1.30;0.57;;;21.20;37.20;;;;;;5052324;27;87047;-57
2023/01/23 03:06:35;;;;;;;0.83;0.80;;;21.20;37.30;;;;;;5058248;27;87766;-56
2023/01/23 03:09:07;;;;;;;1.70;0.90;;;21.10;37.20;;;;;;5051109;27;87991;-56
2023/01/23 03:11:36;;;;;;;0.87;0.80;;;21.10;37.20;;;;;;5036159;27;87140;-55
2023/01/23 03:14:06;;;;;;;0.83;0.83;;;21.10;37.20;;;;;;5037535;27;88177;-56
2023/01/23 03:16:35;;;;;;;1.23;0.97;;;21.10;37.20;;;;;;5042123;27;89422;-56
2023/01/23 03:19:07;;;;;;;0.70;0.70;;;21.10;37.20;;;;;;5041455;27;87373;-56
2023/01/23 03:21:38;;;;;;;1.77;0.73;;;21.10;37.30;;;;;;5051630;27;87949;-57
2023/01/23 03:24:07;;;;;;;1.10;1.00;;;21.10;37.30;;;;;;5052553;27;87058;-54
2023/01/23 03:26:37;;;;;;;0.90;0.83;;;21.10;37.40;;;;;;5063251;27;89232;-54
2023/01/23 03:31:52;;;;;;;0.70;0.70;;;21.10;37.50;;;;;;5043522;27;87407;-54
2023/01/23 03:34:21;;;;;;;3.50;0.53;;;21.10;37.50;;;;;;5040300;28;87257;-55
2023/01/23 03:36:49;;;;;;;0.87;0.60;;;21.10;37.60;;;;;;5044840;27;89245;-57
2023/01/23 03:42:02;;;;;;;0.70;0.70;;;21.10;37.80;;;;;;5053652;27;87134;-55
2023/01/23 03:44:31;;;;;;;0.47;0.47;;;21.10;37.80;;;;;;5039321;27;88512;-55
2023/01/23 03:46:59;;;;;;;0.73;0.73;;;21.10;37.90;;;;;;5041669;27;89006;-55
2023/01/23 03:49:27;;;;;;;0.73;0.70;;;21.20;38.00;;;;;;5052188;27;88654;-55
2023/01/23 03:51:55;;;;;;;0.67;0.67;;;21.30;38.70;;;;;;5051478;27;88716;-55
2023/01/23 03:54:23;;;;;;;0.70;0.70;;;21.30;38.00;;;;;;5037360;27;87647;-55
2023/01/23 03:56:51;;;;;;;1.27;0.60;;;21.50;38.10;;;;;;5041875;27;88216;-55
2023/01/23 03:59:19;;;;;;;2.73;0.40;;;21.70;38.20;;;;;;5042241;27;89663;-55
2023/01/23 04:01:49;;;;;;;0.90;0.63;;;21.80;38.10;;;;;;5043562;27;86992;-55
2023/01/23 04:04:17;;;;;;;0.77;0.60;;;22.10;38.10;;;;;;5040964;27;86215;-55
2023/01/23 04:06:45;;;;;;;0.50;0.50;;;22.30;38.10;;;;;;5058311;27;88085;-55
2023/01/23 04:09:13;;;;;;;0.80;0.60;;;22.50;38.10;;;;;;5041536;27;87973;-53
2023/01/23 04:11:41;;;;;;;0.67;0.30;;;22.70;38.00;;;;;;5050218;27;88192;-55
2023/01/23 04:14:09;;;;;;;3.30;0.60;;;22.90;38.00;;;;;;5042091;27;87112;-55
2023/01/23 04:16:37;;;;;;;0.40;0.40;;;23.10;38.00;;;;;;5041978;27;89242;-55
2023/01/23 04:19:06;;;;;;;0.50;0.50;;;23.20;37.90;;;;;;5042520;27;87873;-53
2023/01/23 04:21:34;;;;;;;0.50;0.50;;;23.30;37.90;;;;;;5041954;27;87252;-55
2023/01/23 04:24:02;;;;;;;1.50;0.60;;;23.40;37.90;;;;;;5041007;28;87152;-54
2023/01/23 04:26:30;;;;;;;0.30;0.30;;;23.40;38.00;;;;;;5041609;27;88009;-55
2023/01/23 04:28:58;;;;;;;1.60;0.73;;;23.40;38.00;;;;;;5042636;27;87972;-53
2023/01/23 04:31:26;;;;;;;0.40;0.40;;;23.40;38.10;;;;;;5042469;27;87016;-54
2023/01/23 04:33:54;;;;;;;0.60;0.60;;;23.40;38.10;;;;;;5042043;27;87129;-53
2023/01/23 04:36:24;;;;;;;0.60;0.60;;;23.50;38.20;;;;;;5041319;27;89242;-54
2023/01/23 04:38:52;;;;;;;0.50;0.50;;;23.50;38.10;;;;;;5040844;27;88727;-54
2023/01/23 04:41:21;;;;;;;0.67;0.60;;;23.60;38.20;;;;;;5041660;27;87150;-54
2023/01/23 04:43:49;;;;;;;0.60;0.53;;;23.80;38.20;;;;;;5043367;27;87039;-53
2023/01/23 04:46:17;;;;;;;0.50;0.50;;;23.90;38.20;;;;;;5041086;28;88364;-54
2023/01/23 04:48:45;;;;;;;0.40;0.40;;;23.90;38.10;;;;;;5052930;27;87768;-54
2023/01/23 04:51:15;;;;;;;0.63;0.37;;;24.00;38.10;;;;;;5040847;28;87176;-54
2023/01/23 04:53:45;;;;;;;0.33;0.33;;;24.00;38.10;;;;;;5040358;27;86375;-54
2023/01/23 04:56:13;;;;;;;0.50;0.50;;;24.10;38.20;;;;;;5040384;28;87085;-53
2023/01/23 04:58:41;;;;;;;2.00;0.53;;;24.10;38.20;;;;;;5040773;28;88879;-53
2023/01/23 05:01:09;;;;;;;0.57;0.50;;;24.10;38.20;;;;;;5040080;28;88110;-56
2023/01/23 05:03:37;;;;;;;0.30;0.30;;;24.20;38.20;;;;;;5040733;28;87121;-56
2023/01/23 05:06:06;;;;;;;0.77;0.70;;;24.30;38.20;;;;;;5043326;27;89229;-54
2023/01/23 05:08:34;;;;;;;0.70;0.50;;;24.40;38.20;;;;;;5041493;27;87952;-53
2023/01/23 05:11:04;;;;;;;1.43;0.80;;;24.60;38.30;;;;;;5041062;27;87644;-56
2023/01/23 05:13:32;;;;;;;2.77;0.63;;;24.60;38.20;;;;;;5052973;27;87071;-56
2023/01/23 05:16:00;;;;;;;1.53;0.93;;;24.70;38.20;;;;;;5038918;27;88239;-56
2023/01/23 05:18:28;;;;;;;1.30;0.93;;;24.70;38.10;;;;;;5039988;27;87816;-56
2023/01/23 05:20:56;;;;;;;2.20;1.00;;;24.80;38.10;;;;;;5040081;27;87359;-57
2023/01/23 05:23:24;;;;;;;1.03;0.97;;;24.90;38.10;;;;;;5031020;28;87470;-57
2023/01/23 05:25:53;;;;;;;2.63;1.30;;;24.90;38.00;;;;;;5038985;27;90145;-57
2023/01/23 05:28:22;;;;;;;2.07;0.90;;;24.90;37.90;;;;;;5040566;27;88869;-57
2023/01/23 05:30:50;;;;;;;3.60;1.90;;;25.00;37.90;;;;;;5057270;27;87095;-57
2023/01/23 05:33:18;;;;;;;2.30;1.13;;;25.00;37.80;;;;;;5058205;27;87089;-57
2023/01/23 05:35:46;;;;;;;2.00;0.80;;;25.00;37.80;;;;;;5042054;27;88416;-57
2023/01/23 05:38:14;;;;;;;3.20;1.50;;;24.90;37.70;;;;;;5042803;27;89054;-58
2023/01/23 05:40:42;;;;;;;2.53;1.43;;;24.90;37.70;;;;;;5052707;27;87677;-58
2023/01/23 05:43:11;;;;;;;1.27;1.03;;;24.90;37.60;;;;;;5061502;27;86425;-58
2023/01/23 05:45:41;;;;;;;2.50;1.33;;;24.90;37.60;;;;;;5060588;27;89104;-58
2023/01/23 05:48:09;;;;;;;1.53;0.90;;;24.90;37.50;;;;;;5043226;27;87835;-57
2023/01/23 05:50:37;;;;;;;1.70;1.23;;;24.90;37.40;;;;;;5060669;27;87855;-57
2023/01/23 05:53:05;;;;;;;1.90;1.40;;;24.90;37.40;;;;;;5059297;27;87103;-58
2023/01/23 05:55:33;;;;;;;1.50;1.10;;;24.90;37.40;;;;;;5051704;27;87106;-58
2023/01/23 05:58:01;;;;;;;2.70;1.10;;;24.90;37.40;;;;;;5058055;27;87767;-56
2023/01/23 06:00:29;;;;;;;3.17;1.17;;;24.80;37.40;;;;;;5050912;27;87039;-57
2023/01/23 06:02:58;;;;;;;2.07;1.00;;;24.80;37.40;;;;;;5049396;27;87180;-58
2023/01/23 06:05:26;;;;;;;1.37;1.27;;;24.70;37.30;;;;;;5059216;27;88066;-58
2023/01/23 06:07:54;;;;;;;1.90;1.40;;;24.60;37.30;;;;;;5045757;27;87826;-58
2023/01/23 06:10:22;;;;;;;1.40;1.23;;;24.60;37.30;;;;;;5056823;27;87014;-57
2023/01/23 06:12:50;;;;;;;1.70;1.30;;;24.50;37.30;;;;;;5040543;28;87062;-58
2023/01/23 06:15:18;;;;;;;2.67;1.23;;;24.40;37.20;;;;;;5056169;27;89190;-57
2023/01/23 06:17:46;;;;;;;3.27;1.30;;;24.40;37.30;;;;;;5059652;27;88470;-57
2023/01/23 06:20:16;;;;;;;2.23;1.33;;;24.40;37.30;;;;;;5059982;27;86944;-58
2023/01/23 06:22:45;;;;;;;1.63;1.20;;;24.20;37.20;;;;;;5060766;27;87017;-57
2023/01/23 06:25:13;;;;;;;4.57;1.30;;;24.20;37.30;;;;;;5040449;27;89265;-58
2023/01/23 06:27:41;;;;;;;1.73;1.43;;;24.10;37.20;;;;;;5040365;27;87951;-57
2023/01/23 06:30:10;;;;;;;3.17;1.27;;;24.00;37.10;;;;;;5040403;27;87049;-58
2023/01/23 06:32:38;;;;;;;1.10;1.00;;;24.00;37.30;;;;;;5049838;27;86371;-58
2023/01/23 06:35:07;;;;;;;2.73;1.40;;;23.90;37.20;;;;;;5049289;27;89018;-58
2023/01/23 06:37:36;;;;;;;2.47;1.50;;;23.80;37.10;;;;;;5050569;27;87787;-58
2023/01/23 06:40:05;;;;;;;2.97;1.37;;;23.80;37.10;;;;;;5058158;27;88400;-58
2023/01/23 06:42:33;;;;;;;2.10;1.03;;;23.70;37.10;;;;;;5041785;27;87745;-58
2023/01/23 06:45:01;;;;;;;2.17;1.10;;;23.70;37.20;;;;;;5051141;27;89189;-57
2023/01/23 06:47:29;;;;;;;2.23;1.27;;;23.60;37.10;;;;;;5040344;27;87790;-57
2023/01/23 06:49:57;;;;;;;1.50;1.30;;;23.60;37.10;;;;;;5040306;27;87046;-58
2023/01/23 06:52:25;;;;;;;2.33;1.73;;;23.50;37.10;;;;;;5044230;28;87046;-57
2023/01/23 06:54:54;;;;;;;2.13;1.23;;;23.50;37.20;;;;;;5043745;28;88954;-57
2023/01/23 06:57:22;;;;;;;2.17;1.10;;;23.40;37.10;;;;;;5043989;28;87935;-56
2023/01/23 06:59:50;;;;;;;1.67;1.57;;;23.30;37.10;;;;;;5043860;27;86963;-58
2023/01/23 07:02:18;;;;;;;1.17;1.00;;;23.30;37.10;;;;;;5044155;27;87517;-57
2023/01/23 07:04:46;;;;;;;1.23;1.13;;;23.30;37.20;;;;;;5042866;27;90314;-57
2023/01/23 07:07:15;;;;;;;0.97;0.90;;;23.30;37.20;;;;;;5046529;27;88696;-57
2023/01/23 07:09:43;;;;;;;1.37;1.00;;;23.20;37.10;;;;;;5023592;28;87042;-58
2023/01/23 07:12:13;;;;;;;4.20;1.37;;;23.20;37.30;;;;;;5042516;27;87032;-57
2023/01/23 07:14:41;;;;;;;1.70;1.20;;;23.10;37.20;;;;;;5063753;27;89301;-57
2023/01/23 07:17:09;;;;;;;3.07;1.37;;;23.10;37.20;;;;;;5063326;27;87792;-58
2023/01/23 07:19:37;;;;;;;1.53;1.33;;;23.00;37.10;;;;;;5055079;27;87216;-57
2023/01/23 07:22:05;;;;;;;1.40;1.07;;;23.00;37.10;;;;;;5043863;27;86375;-57
2023/01/23 07:24:33;;;;;;;1.73;1.20;;;23.00;37.10;;;;;;5043253;28;89194;-57
2023/01/23 07:27:01;;;;;;;1.93;1.20;;;22.90;37.10;;;;;;5050426;27;88888;-57
2023/01/23 07:29:30;;;;;;;1.73;1.13;;;23.00;37.20;;;;;;5047654;27;87890;-56
2023/01/23 07:31:59;;;;;;;3.13;1.27;;;22.90;37.10;;;;;;5045051;27;87127;-57
2023/01/23 07:34:27;;;;;;;0.97;0.90;;;22.90;37.20;;;;;;5061396;27;89155;-56
2023/01/23 07:36:55;;;;;;;1.30;1.20;;;22.90;37.20;;;;;;5061547;27;87990;-57
2023/01/23 07:39:23;;;;;;;1.43;1.10;;;22.80;37.10;;;;;;5061945;27;87183;-57
2023/01/23 07:41:51;;;;;;;3.27;1.30;;;22.80;37.10;;;;;;5062730;27;87057;-57
2023/01/23 07:44:20;;;;;;;1.33;0.90;;;22.80;37.10;;;;;;5061108;27;88209;-57
2023/01/23 07:46:49;;;;;;;1.07;0.83;;;22.70;37.10;;;;;;5063378;27;87973;-58
2023/01/23 07:49:18;;;;;;;0.60;0.50;;;22.70;37.10;;;;;;5063624;27;86913;-58
2023/01/23 07:51:46;;;;;;;1.50;1.10;;;22.60;37.00;;;;;;5062601;27;87039;-57
2023/01/23 07:54:14;;;;;;;0.97;0.90;;;22.60;37.70;;;;;;5062623;27;87939;-58
2023/01/23 07:56:42;;;;;;;1.37;1.27;;;22.60;37.00;;;;;;5051523;27;88835;-57
2023/01/23 07:59:11;;;;;;;1.37;1.00;;;22.60;37.00;;;;;;5043877;27;87066;-58
2023/01/23 08:01:39;;;;;;;1.70;1.03;;;22.50;37.00;;;;;;5043050;27;87104;-57
2023/01/23 08:04:08;;;;;;;3.50;1.20;;;22.50;37.00;;;;;;5052994;27;88346;-58
2023/01/23 08:06:37;;;;;;;1.30;0.80;;;22.50;37.00;;;;;;5061260;27;87692;-57
2023/01/23 08:09:05;;;;;;;3.00;1.13;;;22.50;37.10;;;;;;5059394;27;88175;-57
2023/01/23 08:11:33;;;;;;;0.80;0.80;;;22.50;37.10;;;;;;5043056;27;86484;-57
2023/01/23 08:14:01;;;;;;;1.93;0.97;;;22.40;37.00;;;;;;5047061;27;88021;-58
2023/01/23 08:16:29;;;;;;;2.33;1.57;;;22.40;37.00;;;;;;5051369;27;88869;-58
2023/01/23 08:18:57;;;;;;;2.93;1.20;;;22.40;37.00;;;;;;5044099;27;88042;-57
2023/01/23 08:21:27;;;;;;;1.67;1.20;;;22.30;37.00;;;;;;5042232;28;88471;-57
2023/01/23 08:23:55;;;;;;;1.80;0.87;;;22.30;37.00;;;;;;5040036;28;89292;-57
2023/01/23 08:26:23;;;;;;;1.27;0.80;;;22.30;37.00;;;;;;5042111;28;88984;-56
2023/01/23 08:28:51;;;;;;;0.87;0.73;;;22.30;37.00;;;;;;5042753;27;87011;-57
2023/01/23 08:31:19;;;;;;;0.83;0.73;;;22.20;36.90;;;;;;5042394;28;87020;-57
2023/01/23 08:33:47;;;;;;;1.07;0.80;;;22.20;36.90;;;;;;5042980;28;89266;-56
2023/01/23 08:36:15;;;;;;;1.67;1.20;;;22.20;36.90;;;;;;5043589;28;88739;-57
2023/01/23 08:38:44;;;;;;;1.07;0.97;;;22.20;37.00;;;;;;5043205;27;86971;-57
2023/01/23 08:41:12;;;;;;;1.43;0.73;;;22.20;37.00;;;;;;5042911;27;87026;-57
2023/01/23 08:43:40;;;;;;;1.10;1.00;;;22.20;37.00;;;;;;5042126;28;89445;-57
2023/01/23 08:46:08;;;;;;;1.27;0.60;;;22.10;36.90;;;;;;5043202;27;87491;-57
2023/01/23 08:48:36;;;;;;;0.93;0.80;;;22.10;36.90;;;;;;5043124;28;86950;-57
2023/01/23 08:51:05;;;;;;;0.50;0.50;;;22.10;36.90;;;;;;5042858;28;86914;-57
2023/01/23 08:53:34;;;;;;;2.20;0.80;;;22.10;37.00;;;;;;5042821;28;88211;-57
2023/01/23 08:56:06;;;;;;;0.80;0.50;;;22.10;37.00;;;;;;5042445;27;86753;-57
2023/01/23 08:58:34;;;;;;;0.80;0.80;;;22.00;36.90;;;;;;5042823;27;87097;-58
2023/01/23 09:01:03;;;;;;;0.77;0.77;;;22.00;36.90;;;;;;5043321;27;86228;-57
2023/01/23 09:03:31;;;;;;;0.97;0.80;;;22.00;36.90;;;;;;5042522;28;88092;-57
2023/01/23 09:06:00;;;;;;;1.90;0.80;;;22.00;36.90;;;;;;5042660;27;87945;-57
2023/01/23 09:08:29;;;;;;;3.60;1.13;;;22.00;36.90;;;;;;5042176;28;87852;-57
2023/01/23 09:11:00;;;;;;;1.60;0.70;;;21.90;36.90;;;;;;5042319;28;86955;-56
2023/01/23 09:13:29;;;;;;;0.73;0.73;;;21.90;36.90;;;;;;5041236;27;88187;-57
2023/01/23 09:15:57;;;;;;;0.70;0.70;;;21.90;36.90;;;;;;5042440;27;88012;-57
2023/01/23 09:18:25;;;;;;;0.50;0.50;;;21.90;37.50;;;;;;5042586;28;87059;-56
2023/01/23 09:20:53;;;;;;;1.00;0.70;;;21.90;36.90;;;;;;5042487;27;86994;-57
2023/01/23 09:23:22;;;;;;;0.67;0.67;;;21.80;36.80;;;;;;5042317;28;88196;-57
2023/01/23 09:25:50;;;;;;;0.93;0.83;;;21.80;36.80;;;;;;5041954;28;87770;-57
2023/01/23 09:28:18;;;;;;;0.97;0.90;;;21.80;36.80;;;;;;5042842;27;87005;-57
2023/01/23 09:30:47;;;;;;;0.70;0.70;;;21.80;36.80;;;;;;5042469;28;87074;-57
2023/01/23 09:33:16;;;;;;;2.13;0.60;;;21.80;36.90;;;;;;5042048;27;88172;-58
2023/01/23 09:35:45;;;;;;;1.00;1.00;;;21.80;36.80;;;;;;5042110;28;88707;-57
2023/01/23 09:38:13;;;;;;;0.80;0.80;;;21.80;36.90;;;;;;5042456;27;87046;-57
2023/01/23 09:40:46;;;;;;;1.33;0.93;;;21.70;36.80;;;;;;5042301;28;87038;-57
2023/01/23 09:43:16;;;;;;;3.30;0.80;;;21.70;36.90;;;;;;5041848;28;89227;-57
2023/01/23 09:45:50;;;;;;;0.90;0.90;;;21.70;36.90;;;;;;5042578;28;88911;-57
2023/01/23 09:48:21;;;;;;;1.37;0.70;;;21.70;36.90;;;;;;5042286;27;87145;-57
2023/01/23 09:50:53;;;;;;;0.60;0.60;;;21.60;36.80;;;;;;5042502;28;86251;-57
2023/01/23 09:53:23;;;;;;;1.20;0.97;;;21.70;36.90;;;;;;5042068;28;88083;-56
2023/01/23 09:55:53;;;;;;;0.40;0.40;;;21.60;36.80;;;;;;5041867;27;87947;-57
2023/01/23 09:58:27;;;;;;;0.60;0.60;;;21.60;36.80;;;;;;5041868;28;87997;-56
2023/01/23 10:00:58;;;;;;;1.27;1.13;;;21.60;36.80;;;;;;5041603;28;87107;-57
2023/01/23 10:03:28;;;;;;;1.63;0.53;;;21.60;36.80;;;;;;5041924;27;87914;-57
2023/01/23 10:06:04;;;;;;;1.10;0.90;;;21.60;36.80;;;;;;5041979;28;87518;-57
2023/01/23 10:08:33;;;;;;;0.90;0.90;;;21.60;37.50;;;;;;5042035;28;87023;-57
2023/01/23 10:11:03;;;;;;;1.27;0.77;;;21.60;36.90;;;;;;5042080;28;87067;-57
2023/01/23 10:13:47;;;;;;;0.73;0.73;;;21.60;36.90;;;;;;5041948;28;88295;-57
2023/01/23 10:16:32;;;;;;;1.47;0.83;;;21.50;36.80;;;;;;5041585;28;87830;-57
2023/01/23 10:19:22;;;;;;;1.27;0.60;;;21.50;36.80;;;;;;5041689;28;87157;-56
2023/01/23 10:21:51;;;;;;;2.83;1.03;;;21.50;36.90;;;;;;5042258;28;87029;-57
2023/01/23 10:24:36;;;;;;;1.20;0.70;;;21.50;36.90;;;;;;5040631;28;89406;-57
2023/01/23 10:27:17;;;;;;;1.00;0.70;;;21.50;36.90;;;;;;5041297;28;88688;-57
2023/01/23 10:29:47;;;;;;;1.20;0.63;;;21.40;36.80;;;;;;5041211;28;86951;-57
2023/01/23 10:32:22;;;;;;;0.73;0.70;;;21.40;36.80;;;;;;5041253;27;86989;-56
2023/01/23 10:34:54;;;;;;;0.80;0.70;;;21.40;36.80;;;;;;5041555;28;89060;-57
2023/01/23 10:37:25;;;;;;;1.60;1.23;;;21.40;36.80;;;;;;5041579;27;88963;-57
2023/01/23 10:39:56;;;;;;;0.83;0.83;;;21.40;36.80;;;;;;5041252;28;87060;-56
2023/01/23 10:42:26;;;;;;;0.83;0.83;;;21.40;36.90;;;;;;5041548;28;86263;-57
2023/01/23 10:44:54;;;;;;;3.50;1.03;;;21.40;36.90;;;;;;5040781;28;89284;-56
2023/01/23 10:47:28;;;;;;;0.67;0.57;;;21.40;36.80;;;;;;5041079;28;88829;-56
2023/01/23 10:50:00;;;;;;;0.60;0.47;;;21.40;37.50;;;;;;5040733;28;87676;-57
2023/01/23 10:52:33;;;;;;;1.87;0.70;;;21.30;36.80;;;;;;5041490;27;87029;-56
2023/01/23 10:55:01;;;;;;;1.10;0.70;;;21.30;36.80;;;;;;5040641;28;88123;-57
2023/01/23 10:57:30;;;;;;;2.23;0.87;;;21.30;36.80;;;;;;5040808;28;88832;-57
2023/01/23 11:00:02;;;;;;;2.03;0.73;;;21.30;36.80;;;;;;5041173;28;86937;-57
2023/01/23 11:02:32;;;;;;;0.50;0.50;;;21.30;36.80;;;;;;5041260;28;87014;-57
2023/01/23 11:05:01;;;;;;;0.97;0.90;;;21.30;36.90;;;;;;5041577;28;86754;-57
2023/01/23 11:07:29;;;;;;;1.67;0.80;;;21.30;36.90;;;;;;5041493;28;88811;-56
2023/01/23 11:09:58;;;;;;;1.20;0.83;;;21.30;36.90;;;;;;5041031;27;86942;-57
2023/01/23 11:12:27;;;;;;;0.63;0.63;;;21.30;36.90;;;;;;5041101;28;87392;-57
2023/01/23 11:15:22;;;;;;;0.77;0.70;;;21.30;36.90;;;;;;5039974;28;89190;-57
2023/01/23 11:17:52;;;;;;;0.87;0.87;;;21.20;36.80;;;;;;5040636;27;87415;-57
2023/01/23 11:20:24;;;;;;;2.30;1.10;;;21.20;36.80;;;;;;5040458;28;87125;-57
2023/01/23 11:23:01;;;;;;;0.67;0.67;;;21.20;36.80;;;;;;5040966;28;86913;-56
2023/01/23 11:25:30;;;;;;;0.70;0.70;;;21.20;36.80;;;;;;5039727;28;89187;-57
2023/01/23 11:27:59;;;;;;;1.53;0.73;;;21.20;36.80;;;;;;5040652;28;87944;-57
2023/01/23 11:30:34;;;;;;;0.83;0.83;;;21.20;36.80;;;;;;5040526;28;86945;-56
2023/01/23 11:33:09;;;;;;;2.20;0.83;;;21.20;36.80;;;;;;5041051;28;86292;-57
2023/01/23 11:35:58;;;;;;;0.77;0.50;;;21.20;36.80;;;;;;5040862;27;88404;-58
2023/01/23 11:38:27;;;;;;;0.67;0.50;;;21.20;36.90;;;;;;5044157;28;88981;-57
2023/01/23 11:40:58;;;;;;;0.57;0.57;;;21.20;36.90;;;;;;5043629;28;88869;-57
2023/01/23 11:43:26;;;;;;;0.93;0.60;;;21.20;36.90;;;;;;5044239;28;87063;-58
2023/01/23 11:46:15;;;;;;;0.60;0.50;;;21.10;36.90;;;;;;5043554;28;88134;-57
2023/01/23 11:48:53;;;;;;;0.60;0.60;;;21.10;36.90;;;;;;5033626;28;87936;-57
2023/01/23 11:51:24;;;;;;;1.17;1.07;;;21.10;36.90;;;;;;5043767;28;87008;-56
2023/01/23 11:53:57;;;;;;;0.47;0.47;;;21.10;36.90;;;;;;5043562;28;87028;-57
2023/01/23 11:56:50;;;;;;;0.60;0.60;;;21.10;36.90;;;;;;5043900;28;89144;-57
2023/01/23 11:59:45;;;;;;;0.43;0.43;;;21.10;36.90;;;;;;5043906;28;87886;-58
2023/01/23 12:02:45;;;;;;;0.70;0.70;;;21.10;36.90;;;;;;5043679;28;86986;-57
2023/01/23 12:05:35;;;;;;;1.27;0.80;;;21.00;36.80;;;;;;5043842;28;86990;-57
2023/01/23 12:08:10;;;;;;;0.90;0.57;;;21.00;36.80;;;;;;5042541;27;89186;-58
2023/01/23 12:10:45;;;;;;;1.10;0.70;;;21.00;36.90;;;;;;5043243;27;88947;-57
2023/01/23 12:13:20;;;;;;;0.77;0.60;;;21.00;36.90;;;;;;5043639;28;87031;-57
2023/01/23 12:16:01;;;;;;;2.03;0.97;;;21.00;36.90;;;;;;5044266;28;86924;-57
2023/01/23 12:18:33;;;;;;;0.90;0.90;;;21.00;36.90;;;;;;5043344;28;87023;-57
2023/01/23 12:21:08;;;;;;;0.70;0.60;;;21.00;36.90;;;;;;5043585;28;87781;-56
2023/01/23 12:23:49;;;;;;;0.60;0.60;;;21.00;36.90;;;;;;5043853;27;87133;-56
2023/01/23 12:26:19;;;;;;;1.43;1.00;;;20.90;36.90;;;;;;5043788;27;86250;-58
2023/01/23 12:29:00;;;;;;;0.83;0.50;;;20.90;36.90;;;;;;5043188;28;87880;-57
2023/01/23 12:31:35;;;;;;;1.30;0.70;;;20.90;36.90;;;;;;5043231;27;87974;-56
2023/01/23 12:34:18;;;;;;;0.87;0.83;;;20.90;36.90;;;;;;5042773;28;87952;-57
2023/01/23 12:36:57;;;;;;;1.03;0.67;;;20.90;36.90;;;;;;5043198;28;86774;-57
2023/01/23 12:39:56;;;;;;;0.87;0.80;;;20.90;36.90;;;;;;5043050;28;88114;-56
2023/01/23 12:42:25;;;;;;;0.70;0.70;;;20.90;36.90;;;;;;5043365;27;88983;-57
2023/01/23 12:44:58;;;;;;;0.60;0.60;;;20.90;36.90;;;;;;5043737;28;86909;-57
2023/01/23 12:47:28;;;;;;;0.57;0.57;;;20.90;36.90;;;;;;5043117;28;86709;-57
2023/01/23 12:49:58;;;;;;;0.80;0.80;;;20.90;37.00;;;;;;5043115;28;87038;-56
2023/01/23 12:52:28;;;;;;;0.60;0.60;;;20.90;36.90;;;;;;5042720;27;87909;-56
2023/01/23 12:54:59;;;;;;;1.13;0.60;;;20.90;36.90;;;;;;5043046;27;87026;-55
2023/01/23 12:57:43;;;;;;;0.90;0.60;;;20.90;37.00;;;;;;5043433;28;86995;-57
2023/01/23 13:00:44;;;;;;;1.33;0.83;;;20.90;37.00;;;;;;5041571;28;88635;-57
2023/01/23 13:03:34;;;;;;;0.73;0.70;;;20.80;36.90;;;;;;5042413;27;88766;-57
2023/01/23 13:06:33;;;;;;;0.70;0.70;;;20.80;36.90;;;;;;5043022;28;87039;-56
2023/01/23 13:09:07;;;;;;;1.00;0.90;;;20.80;36.90;;;;;;5042515;28;88000;-56
2023/01/23 13:11:50;;;;;;;1.17;0.57;;;20.80;36.90;;;;;;5042087;28;87802;-56
2023/01/23 13:14:22;;;;;;;0.97;0.50;;;20.80;36.90;;;;;;5042456;28;88114;-56